sensor_id;sensor_type;location;lat;lon;timestamp;pressure;altitude;pressure_sealevel;temperature;humidity
63901;BME280;50538;53.482;10.294;2022-07-06T00:09:26;101714.34;;;15.29;73.51
63901;BME280;50538;53.482;10.294;2022-07-06T00:19:26;101715.41;;;15.11;74.33
63901;BME280;50538;53.482;10.294;2022-07-06T00:29:27;101720.25;;;15.00;76.83
63901;BME280;50538;53.482;10.294;2022-07-06T00:39:27;101709.22;;;14.95;77.54
63901;BME280;50538;53.482;10.294;2022-07-06T00:49:29;101717.44;;;14.93;77.42
63901;BME280;50538;53.482;10.294;2022-07-06T00:59:47;101713.41;;;14.89;78.33
63901;BME280;50538;53.482;10.294;2022-07-06T01:09:48;101711.25;;;14.84;78.16
63901;BME280;50538;53.482;10.294;2022-07-06T01:19:48;101711.75;;;14.80;79.07
63901;BME280;50538;53.482;10.294;2022-07-06T01:29:49;101713.28;;;14.74;79.14
63901;BME280;50538;53.482;10.294;2022-07-06T01:39:49;101705.75;;;14.70;79.21
63901;BME280;50538;53.482;10.294;2022-07-06T01:49:49;101696.56;;;14.64;79.31
63901;BME280;50538;53.482;10.294;2022-07-06T01:59:50;101702.41;;;14.68;79.49
63901;BME280;50538;53.482;10.294;2022-07-06T02:09:50;101692.56;;;14.68;79.67
63901;BME280;50538;53.482;10.294;2022-07-06T02:19:50;101710.25;;;14.69;79.66
63901;BME280;50538;53.482;10.294;2022-07-06T02:29:51;101702.59;;;14.66;79.65
63901;BME280;50538;53.482;10.294;2022-07-06T02:39:51;101702.75;;;14.65;80.15
63901;BME280;50538;53.482;10.294;2022-07-06T02:49:51;101694.06;;;14.63;80.56
63901;BME280;50538;53.482;10.294;2022-07-06T02:59:52;101706.59;;;14.62;81.07
63901;BME280;50538;53.482;10.294;2022-07-06T03:09:52;101707.75;;;14.59;81.50
63901;BME280;50538;53.482;10.294;2022-07-06T03:19:53;101718.78;;;14.56;84.88
63901;BME280;50538;53.482;10.294;2022-07-06T03:29:53;101706.78;;;14.44;84.36
63901;BME280;50538;53.482;10.294;2022-07-06T03:39:53;101713.81;;;14.37;86.08
63901;BME280;50538;53.482;10.294;2022-07-06T03:49:54;101715.97;;;14.34;86.37
63901;BME280;50538;53.482;10.294;2022-07-06T03:59:54;101714.97;;;14.35;87.83
63901;BME280;50538;53.482;10.294;2022-07-06T04:09:54;101711.97;;;14.30;88.60
63901;BME280;50538;53.482;10.294;2022-07-06T04:19:55;101722.47;;;14.31;88.68
63901;BME280;50538;53.482;10.294;2022-07-06T04:29:55;101719.31;;;14.36;87.36
63901;BME280;50538;53.482;10.294;2022-07-06T04:39:55;101728.50;;;14.33;84.89
63901;BME280;50538;53.482;10.294;2022-07-06T04:49:56;101730.66;;;14.30;84.94
63901;BME280;50538;53.482;10.294;2022-07-06T04:59:56;101717.66;;;14.43;83.19
63901;BME280;50538;53.482;10.294;2022-07-06T05:09:57;101735.00;;;14.63;81.92
63901;BME280;50538;53.482;10.294;2022-07-06T05:19:57;101742.84;;;14.81;83.16
63901;BME280;50538;53.482;10.294;2022-07-06T05:29:58;101726.78;;;14.89;83.07
63901;BME280;50538;53.482;10.294;2022-07-06T05:39:58;101724.13;;;14.89;82.66
63901;BME280;50538;53.482;10.294;2022-07-06T05:49:58;101730.13;;;14.99;82.13
63901;BME280;50538;53.482;10.294;2022-07-06T06:00:14;101724.41;;;15.10;82.26
63901;BME280;50538;53.482;10.294;2022-07-06T06:10:14;101734.41;;;15.24;81.59
63901;BME280;50538;53.482;10.294;2022-07-06T06:20:15;101740.56;;;15.33;79.78
63901;BME280;50538;53.482;10.294;2022-07-06T06:30:15;101745.59;;;15.28;79.63
63901;BME280;50538;53.482;10.294;2022-07-06T06:40:16;101761.16;;;15.33;79.08
63901;BME280;50538;53.482;10.294;2022-07-06T07:00:44;101762.78;;;15.50;81.95
63901;BME280;50538;53.482;10.294;2022-07-06T07:10:55;101763.97;;;15.78;79.20
63901;BME280;50538;53.482;10.294;2022-07-06T07:20:55;101768.88;;;16.06;79.27
63901;BME280;50538;53.482;10.294;2022-07-06T07:30:56;101770.63;;;16.44;76.76
63901;BME280;50538;53.482;10.294;2022-07-06T07:40:56;101783.50;;;16.49;74.37
63901;BME280;50538;53.482;10.294;2022-07-06T07:50:56;101780.69;;;16.65;71.03
63901;BME280;50538;53.482;10.294;2022-07-06T08:00:57;101780.31;;;17.06;69.09
63901;BME280;50538;53.482;10.294;2022-07-06T08:10:57;101783.19;;;17.04;69.64
63901;BME280;50538;53.482;10.294;2022-07-06T08:20:57;101782.34;;;17.04;68.18
63901;BME280;50538;53.482;10.294;2022-07-06T08:30:58;101789.00;;;16.93;71.63
63901;BME280;50538;53.482;10.294;2022-07-06T08:40:58;101788.56;;;17.04;73.88
63901;BME280;50538;53.482;10.294;2022-07-06T08:50:59;101791.59;;;17.01;66.00
63901;BME280;50538;53.482;10.294;2022-07-06T09:00:59;101798.59;;;16.87;69.58
63901;BME280;50538;53.482;10.294;2022-07-06T09:11:00;101810.09;;;16.59;75.07
63901;BME280;50538;53.482;10.294;2022-07-06T09:21:00;101802.41;;;16.25;77.36
63901;BME280;50538;53.482;10.294;2022-07-06T09:31:06;101824.06;;;16.46;75.76
63901;BME280;50538;53.482;10.294;2022-07-06T09:41:07;101823.41;;;16.44;75.65
63901;BME280;50538;53.482;10.294;2022-07-06T09:51:08;101826.03;;;16.52;76.69
63901;BME280;50538;53.482;10.294;2022-07-06T10:01:08;101836.19;;;16.65;75.98
63901;BME280;50538;53.482;10.294;2022-07-06T10:11:09;101832.72;;;16.79;74.89
63901;BME280;50538;53.482;10.294;2022-07-06T10:21:15;101819.13;;;17.18;75.03
63901;BME280;50538;53.482;10.294;2022-07-06T10:31:17;101803.19;;;18.05;68.78
63901;BME280;50538;53.482;10.294;2022-07-06T10:41:30;101816.63;;;18.05;66.97
63901;BME280;50538;53.482;10.294;2022-07-06T10:51:31;101799.97;;;17.95;69.41
63901;BME280;50538;53.482;10.294;2022-07-06T11:01:34;101802.50;;;17.67;68.15
63901;BME280;50538;53.482;10.294;2022-07-06T11:11:39;101814.69;;;17.25;70.55
63901;BME280;50538;53.482;10.294;2022-07-06T11:32:51;101823.13;;;16.62;67.68
63901;BME280;50538;53.482;10.294;2022-07-06T11:43:29;101816.75;;;16.40;70.84
63901;BME280;50538;53.482;10.294;2022-07-06T11:53:56;101804.34;;;16.62;72.50
63901;BME280;50538;53.482;10.294;2022-07-06T12:03:58;101794.50;;;17.14;73.20
63901;BME280;50538;53.482;10.294;2022-07-06T12:14:03;101783.22;;;17.93;69.48
63901;BME280;50538;53.482;10.294;2022-07-06T12:24:24;101759.41;;;18.96;65.42
63901;BME280;50538;53.482;10.294;2022-07-06T12:34:29;101743.19;;;19.17;63.32
63901;BME280;50538;53.482;10.294;2022-07-06T12:44:48;101748.56;;;20.06;61.26
63901;BME280;50538;53.482;10.294;2022-07-06T12:54:50;101735.63;;;19.82;55.87
63901;BME280;50538;53.482;10.294;2022-07-06T13:05:03;101733.16;;;19.74;58.21
63901;BME280;50538;53.482;10.294;2022-07-06T13:15:05;101735.97;;;19.59;54.65
63901;BME280;50538;53.482;10.294;2022-07-06T13:25:07;101717.41;;;19.84;54.59
63901;BME280;50538;53.482;10.294;2022-07-06T13:35:08;101718.38;;;20.31;52.43
63901;BME280;50538;53.482;10.294;2022-07-06T13:45:10;101709.44;;;20.24;52.27
63901;BME280;50538;53.482;10.294;2022-07-06T13:55:10;101705.19;;;19.88;53.77
63901;BME280;50538;53.482;10.294;2022-07-06T14:05:10;101688.28;;;20.54;51.53
63901;BME280;50538;53.482;10.294;2022-07-06T14:15:11;101682.25;;;20.65;50.78
63901;BME280;50538;53.482;10.294;2022-07-06T14:25:11;101681.84;;;20.61;50.42
63901;BME280;50538;53.482;10.294;2022-07-06T14:35:12;101665.22;;;20.51;49.82
63901;BME280;50538;53.482;10.294;2022-07-06T14:45:12;101668.72;;;20.91;49.10
63901;BME280;50538;53.482;10.294;2022-07-06T14:55:13;101676.41;;;20.88;46.96
63901;BME280;50538;53.482;10.294;2022-07-06T15:05:14;101679.47;;;21.04;46.09
63901;BME280;50538;53.482;10.294;2022-07-06T15:15:14;101657.34;;;21.47;44.81
63901;BME280;50538;53.482;10.294;2022-07-06T15:25:14;101661.47;;;21.88;45.86
63901;BME280;50538;53.482;10.294;2022-07-06T15:35:15;101646.22;;;22.00;45.72
63901;BME280;50538;53.482;10.294;2022-07-06T15:45:16;101638.66;;;21.39;46.23
63901;BME280;50538;53.482;10.294;2022-07-06T15:55:18;101637.50;;;21.02;46.80
63901;BME280;50538;53.482;10.294;2022-07-06T16:05:21;101635.94;;;20.81;47.47
63901;BME280;50538;53.482;10.294;2022-07-06T16:15:22;101626.81;;;20.69;48.06
63901;BME280;50538;53.482;10.294;2022-07-06T16:25:23;101613.06;;;21.79;45.90
63901;BME280;50538;53.482;10.294;2022-07-06T16:35:25;101578.47;;;24.59;41.21
63901;BME280;50538;53.482;10.294;2022-07-06T16:45:25;101582.13;;;24.53;39.07
63901;BME280;50538;53.482;10.294;2022-07-06T16:55:26;101569.09;;;23.97;39.92
63901;BME280;50538;53.482;10.294;2022-07-06T17:05:27;101544.91;;;23.72;40.54
63901;BME280;50538;53.482;10.294;2022-07-06T17:15:27;101540.50;;;22.99;41.68
63901;BME280;50538;53.482;10.294;2022-07-06T17:25:29;101529.28;;;22.04;44.05
63901;BME280;50538;53.482;10.294;2022-07-06T17:35:29;101532.63;;;21.43;45.29
63901;BME280;50538;53.482;10.294;2022-07-06T17:45:30;101529.38;;;20.90;47.12
63901;BME280;50538;53.482;10.294;2022-07-06T17:55:30;101529.72;;;20.42;47.34
63901;BME280;50538;53.482;10.294;2022-07-06T18:05:31;101522.09;;;20.20;49.33
63901;BME280;50538;53.482;10.294;2022-07-06T18:15:31;101514.41;;;19.97;50.15
63901;BME280;50538;53.482;10.294;2022-07-06T18:25:31;101516.91;;;19.78;51.55
63901;BME280;50538;53.482;10.294;2022-07-06T18:35:32;101503.88;;;19.56;52.74
63901;BME280;50538;53.482;10.294;2022-07-06T18:45:32;101491.81;;;19.32;53.17
63901;BME280;50538;53.482;10.294;2022-07-06T18:55:33;101488.88;;;19.13;54.07
63901;BME280;50538;53.482;10.294;2022-07-06T19:05:34;101484.84;;;18.90;54.97
63901;BME280;50538;53.482;10.294;2022-07-06T19:15:34;101483.75;;;18.71;55.90
63901;BME280;50538;53.482;10.294;2022-07-06T19:25:35;101469.63;;;18.56;56.46
63901;BME280;50538;53.482;10.294;2022-07-06T19:35:35;101472.88;;;18.44;57.70
63901;BME280;50538;53.482;10.294;2022-07-06T19:45:36;101463.88;;;18.31;58.74
63901;BME280;50538;53.482;10.294;2022-07-06T19:55:37;101460.09;;;18.18;59.26
63901;BME280;50538;53.482;10.294;2022-07-06T20:05:37;101470.50;;;17.94;64.36
63901;BME280;50538;53.482;10.294;2022-07-06T20:15:37;101472.75;;;17.41;70.32
63901;BME280;50538;53.482;10.294;2022-07-06T20:25:40;101461.88;;;16.92;74.86
63901;BME280;50538;53.482;10.294;2022-07-06T20:35:41;101463.72;;;16.55;78.30
63901;BME280;50538;53.482;10.294;2022-07-06T20:45:44;101442.97;;;16.28;80.14
63901;BME280;50538;53.482;10.294;2022-07-06T20:55:44;101439.16;;;16.07;nan
63901;BME280;50538;53.482;10.294;2022-07-06T21:05:48;101424.44;;;15.88;83.86
63901;BME280;50538;53.482;10.294;2022-07-06T21:15:50;101413.09;;;15.72;85.24
63901;BME280;50538;53.482;10.294;2022-07-06T21:25:50;101403.66;;;15.61;86.01
63901;BME280;50538;53.482;10.294;2022-07-06T21:35:54;101388.88;;;15.50;86.72
63901;BME280;50538;53.482;10.294;2022-07-06T21:45:55;101382.13;;;15.40;87.80
63901;BME280;50538;53.482;10.294;2022-07-06T21:55:56;101367.16;;;15.31;87.95
63901;BME280;50538;53.482;10.294;2022-07-06T22:05:56;101353.19;;;15.20;88.43
63901;BME280;50538;53.482;10.294;2022-07-06T22:16:00;101336.41;;;15.12;87.50
63901;BME280;50538;53.482;10.294;2022-07-06T22:26:06;101326.56;;;15.04;88.54
63901;BME280;50538;53.482;10.294;2022-07-06T22:36:09;101314.47;;;14.94;89.73
63901;BME280;50538;53.482;10.294;2022-07-06T22:46:10;101306.97;;;14.89;91.56
63901;BME280;50538;53.482;10.294;2022-07-06T22:56:12;101293.38;;;14.76;93.82
63901;BME280;50538;53.482;10.294;2022-07-06T23:06:12;101288.75;;;14.70;95.76
63901;BME280;50538;53.482;10.294;2022-07-06T23:16:13;101282.63;;;14.61;96.66
63901;BME280;50538;53.482;10.294;2022-07-06T23:26:13;101272.84;;;14.53;99.77
63901;BME280;50538;53.482;10.294;2022-07-06T23:36:14;101261.22;;;14.46;100.00
63901;BME280;50538;53.482;10.294;2022-07-06T23:46:14;101234.00;;;14.43;100.00
63901;BME280;50538;53.482;10.294;2022-07-06T23:56:21;101219.00;;;14.42;100.00
